Time;durP1;ratioP1;P1;durP2;ratioP2;P2;SDS_P1;SDS_P2;PMS_P1;PMS_P2;Temp;Humidity;BMP_temperature;BMP_pressure;BME280_temperature;BME280_humidity;BME280_pressure;Samples;Min_cycle;Max_cycle;Signal;HPM_P1;HPM_P2
2022/04/21 00:00:34;;;;;;;6.80;3.03;;;;;;;7.22;59.15;100123.44;5055291;28;20044;-47
2022/04/21 00:03:01;;;;;;;5.95;2.65;;;;;;;7.18;59.70;100119.94;5033503;28;20046;-40
2022/04/21 00:05:28;;;;;;;10.57;2.88;;;;;;;7.14;59.88;100116.47;5057547;28;20600;-42
2022/04/21 00:07:55;;;;;;;7.40;2.80;;;;;;;7.14;60.26;100120.75;5052404;28;20090;-45
2022/04/21 00:10:23;;;;;;;9.90;3.17;;;;;;;7.08;60.02;100116.38;5058528;28;20079;-44
2022/04/21 00:12:50;;;;;;;8.63;3.75;;;;;;;7.06;59.14;100112.94;5030108;28;20574;-48
2022/04/21 00:15:18;;;;;;;10.10;4.22;;;;;;;7.05;59.21;100111.19;5023849;28;20056;-43
2022/04/21 00:17:44;;;;;;;6.93;4.35;;;;;;;7.04;58.74;100114.63;5056957;28;20439;-43
2022/04/21 00:20:11;;;;;;;15.82;3.75;;;;;;;7.01;60.17;100109.44;5053054;28;20079;-41
2022/04/21 00:25:26;;;;;;;4.85;2.88;;;;;;;6.96;59.06;100095.63;5036803;28;20053;-44
2022/04/21 00:27:55;;;;;;;7.95;3.10;;;;;;;6.92;59.29;100095.59;5050732;28;20044;-40
2022/04/21 00:30:22;;;;;;;8.40;3.28;;;;;;;6.91;59.58;100093.88;5053811;28;20495;-43
2022/04/21 00:32:49;;;;;;;9.48;3.25;;;;;;;6.88;60.74;100088.66;5039038;28;20136;-44
2022/04/21 00:35:22;;;;;;;7.10;3.22;;;;;;;6.87;60.16;100092.09;5038786;28;20080;-44
2022/04/21 00:37:52;;;;;;;7.57;3.25;;;;;;;6.81;59.63;100081.72;5036437;28;20076;-44
2022/04/21 00:40:20;;;;;;;6.20;2.88;;;;;;;6.79;60.73;100083.41;5047651;28;20077;-47
2022/04/21 00:42:47;;;;;;;10.02;3.08;;;;;;;6.80;61.01;100082.56;5052095;28;20049;-41
2022/04/21 00:45:15;;;;;;;10.48;3.47;;;;;;;6.78;59.86;100081.66;5054427;28;20061;-42
2022/04/21 00:47:45;;;;;;;10.52;3.63;;;;;;;6.75;60.01;100079.06;5038994;28;20052;-43
2022/04/21 00:50:18;;;;;;;7.25;2.80;;;;;;;6.72;60.06;100073.88;5047701;28;20048;-47
2022/04/21 00:52:46;;;;;;;7.53;3.50;;;;;;;6.73;59.69;100073.03;5056281;28;20831;-48
2022/04/21 00:55:13;;;;;;;9.98;3.03;;;;;;;6.69;60.69;100072.13;5041797;28;20095;-42
2022/04/21 00:57:42;;;;;;;7.57;3.13;;;;;;;6.65;61.59;100078.94;5058404;28;20079;-48
2022/04/21 01:00:11;;;;;;;8.55;3.13;;;;;;;6.63;60.39;100072.03;5031758;28;20103;-45
2022/04/21 01:02:49;;;;;;;7.43;3.05;;;;;;;6.61;61.23;100068.56;5039503;28;20053;-48
2022/04/21 01:05:24;;;;;;;8.23;3.03;;;;;;;6.58;61.08;100064.25;5048252;28;20051;-45
2022/04/21 01:07:51;;;;;;;13.27;4.75;;;;;;;6.55;60.67;100061.63;5031833;28;20378;-44
2022/04/21 01:10:18;;;;;;;7.60;3.40;;;;;;;6.55;61.63;100064.19;5032391;28;20052;-46
2022/04/21 01:12:45;;;;;;;14.88;3.38;;;;;;;6.54;61.31;100057.31;5050179;28;20098;-47
2022/04/21 01:15:12;;;;;;;8.80;3.45;;;;;;;6.51;60.82;100057.28;5055397;28;20061;-43
2022/04/21 01:17:39;;;;;;;8.68;3.97;;;;;;;6.47;61.29;100058.94;5054793;28;20069;-46
2022/04/21 01:20:09;;;;;;;10.32;3.22;;;;;;;6.47;61.31;100065.78;5031885;28;20056;-46
2022/04/21 01:22:36;;;;;;;6.72;3.45;;;;;;;6.46;61.84;100064.94;5053518;28;20067;-43
2022/04/21 01:25:03;;;;;;;9.55;3.38;;;;;;;6.42;61.22;100064.03;5035557;28;20105;-44
2022/04/21 01:27:33;;;;;;;10.15;3.67;;;;;;;6.41;61.66;100057.16;5034157;28;20072;-44
2022/04/21 01:30:02;;;;;;;7.00;4.15;;;;;;;6.39;61.68;100063.97;5038519;28;20547;-51
2022/04/21 01:32:31;;;;;;;7.57;3.22;;;;;;;6.38;61.38;100067.41;5037491;28;20049;-45
2022/04/21 01:34:58;;;;;;;8.45;3.30;;;;;;;6.37;61.44;100060.53;5051882;28;20110;-44
2022/04/21 01:42:58;;;;;;;7.70;3.10;;;;;;;6.31;61.27;100060.44;5031190;28;20053;-43
2022/04/21 01:45:24;;;;;;;11.52;3.25;;;;;;;6.31;62.39;100060.44;5051386;28;20041;-41
2022/04/21 01:47:51;;;;;;;9.38;2.78;;;;;;;6.29;61.56;100062.13;5052908;28;20053;-45
2022/04/21 01:50:18;;;;;;;7.57;2.75;;;;;;;6.28;62.39;100060.38;5049293;28;20053;-42
2022/04/21 01:52:45;;;;;;;8.95;3.30;;;;;;;6.27;62.35;100063.78;5053658;28;20048;-48
2022/04/21 01:55:11;;;;;;;8.45;3.13;;;;;;;6.22;62.62;100058.59;5056381;28;20048;-49
2022/04/21 01:57:38;;;;;;;7.32;2.90;;;;;;;6.23;61.30;100056.88;5053748;28;20053;-48
2022/04/21 02:00:12;;;;;;;10.88;3.03;;;;;;;6.22;62.74;100060.28;5048798;28;20045;-42
2022/04/21 02:02:43;;;;;;;7.40;2.72;;;;;;;6.21;61.87;100058.56;5054117;28;20048;-41
2022/04/21 02:05:09;;;;;;;8.25;2.65;;;;;;;6.21;62.40;100054.28;5051726;28;20053;-41
2022/04/21 02:07:40;;;;;;;6.57;3.08;;;;;;;6.19;61.88;100050.84;5047955;28;20053;-42
2022/04/21 02:10:07;;;;;;;8.82;3.30;;;;;;;6.17;62.27;100052.50;5030197;28;20118;-44
2022/04/21 02:12:34;;;;;;;7.20;3.30;;;;;;;6.13;62.49;100046.47;5063051;28;20048;-45
2022/04/21 02:15:02;;;;;;;9.73;3.55;;;;;;;6.10;62.64;100041.25;5056320;28;20428;-40
2022/04/21 02:17:30;;;;;;;7.88;3.10;;;;;;;6.09;61.67;100038.66;5056317;28;20118;-47
2022/04/21 02:19:56;;;;;;;10.25;3.55;;;;;;;6.06;62.40;100028.31;5056915;28;20063;-42
2022/04/21 02:22:23;;;;;;;7.72;3.35;;;;;;;6.04;62.24;100036.88;5063674;28;20049;-44
2022/04/21 02:24:49;;;;;;;9.27;4.28;;;;;;;6.03;62.42;100032.59;5054733;28;20607;-42
2022/04/21 02:27:16;;;;;;;6.60;2.95;;;;;;;6.01;61.98;100035.97;5051660;28;20053;-42
2022/04/21 02:29:42;;;;;;;10.60;3.65;;;;;;;5.99;61.72;100043.63;5055901;28;20052;-41
2022/04/21 02:32:09;;;;;;;10.15;2.97;;;;;;;5.99;61.86;100037.63;5052275;28;20052;-41
2022/04/21 02:34:36;;;;;;;11.80;3.78;;;;;;;5.97;62.95;100040.16;5052748;28;20333;-40
2022/04/21 02:37:02;;;;;;;8.63;3.10;;;;;;;5.95;63.00;100036.72;5049992;28;20040;-43
2022/04/21 02:39:29;;;;;;;7.25;3.38;;;;;;;5.94;62.01;100031.56;5054162;28;20502;-46
2022/04/21 02:41:56;;;;;;;12.60;3.25;;;;;;;5.92;62.18;100037.50;5055112;28;20052;-45
2022/04/21 02:44:23;;;;;;;8.00;2.95;;;;;;;5.90;62.08;100034.06;5046181;28;20061;-50
2022/04/21 02:46:50;;;;;;;10.30;3.60;;;;;;;5.88;63.14;100035.72;5051028;28;20041;-43
2022/04/21 02:49:17;;;;;;;8.75;4.47;;;;;;;5.85;62.57;100024.56;5038795;28;20105;-41
2022/04/21 02:51:44;;;;;;;11.00;3.00;;;;;;;5.81;62.19;100018.47;5042492;28;20037;-43
2022/04/21 02:59:44;;;;;;;9.05;2.72;;;;;;;5.73;62.79;100020.94;5033993;28;20109;-44
2022/04/21 03:02:11;;;;;;;7.47;3.70;;;;;;;5.73;62.65;100014.91;5055328;28;20041;-44
2022/04/21 03:04:38;;;;;;;8.23;3.35;;;;;;;5.72;62.60;100013.19;5053562;28;20484;-46
2022/04/21 03:07:04;;;;;;;9.00;3.90;;;;;;;5.71;63.06;100016.63;5052905;28;20431;-42
2022/04/21 03:09:32;;;;;;;10.98;3.75;;;;;;;5.69;62.75;100011.44;5056999;28;20459;-42
2022/04/21 03:12:02;;;;;;;10.00;3.83;;;;;;;5.66;63.56;100017.41;5053093;28;20048;-45
2022/04/21 03:14:29;;;;;;;9.75;3.08;;;;;;;5.65;63.31;100013.09;5032338;28;20114;-45
2022/04/21 03:17:00;;;;;;;7.25;3.03;;;;;;;5.63;62.45;100008.75;5055980;28;20076;-49
2022/04/21 03:19:27;;;;;;;10.70;3.72;;;;;;;5.61;62.70;100024.16;5040446;28;20037;-41
2022/04/21 03:24:41;;;;;;;9.27;3.67;;;;;;;5.53;62.84;100018.03;5035388;28;20045;-42
2022/04/21 03:27:07;;;;;;;10.40;2.58;;;;;;;5.50;62.92;100012.81;5056840;28;20419;-43
2022/04/21 03:29:37;;;;;;;6.10;3.10;;;;;;;5.50;63.45;100023.09;5055789;28;21341;-45
2022/04/21 03:32:09;;;;;;;6.13;3.47;;;;;;;5.47;63.00;100007.66;5057554;28;20044;-47
2022/04/21 03:34:40;;;;;;;11.32;2.42;;;;;;;5.46;63.76;100013.59;5030186;28;20457;-44
2022/04/21 03:37:07;;;;;;;;;;;;;;;5.35;64.92;100006.59;5047834;28;20052;-42
2022/04/21 03:39:35;;;;;;;5.45;2.22;;;;;;;5.39;64.63;100010.94;5031242;28;19920;-42
2022/04/21 03:42:04;;;;;;;5.10;2.55;;;;;;;5.42;63.70;100010.13;5052050;28;20058;-44
2022/04/21 03:44:50;;;;;;;6.82;2.60;;;;;;;5.42;63.70;100009.25;5035561;28;20389;-43
2022/04/21 03:47:17;;;;;;;7.18;2.78;;;;;;;5.42;63.90;100010.13;5037354;28;20053;-40
2022/04/21 03:49:43;;;;;;;10.30;2.67;;;;;;;5.41;64.05;100013.56;5035049;28;20056;-41
2022/04/21 03:52:10;;;;;;;5.85;3.00;;;;;;;5.39;63.76;100010.94;5051465;28;20626;-40
2022/04/21 03:54:38;;;;;;;7.78;3.42;;;;;;;5.38;64.41;100008.34;5050816;28;20049;-44
2022/04/21 03:57:06;;;;;;;9.45;3.30;;;;;;;5.37;63.86;100007.47;5023342;28;20040;-45
2022/04/21 03:59:34;;;;;;;10.85;2.63;;;;;;;5.35;63.49;99998.88;5041843;28;20500;-45
2022/04/21 04:02:02;;;;;;;7.32;2.70;;;;;;;5.34;64.47;100002.28;5028615;28;20040;-45
2022/04/21 04:04:30;;;;;;;7.88;2.70;;;;;;;5.32;64.36;100013.38;5054193;28;20562;-42
2022/04/21 04:12:34;;;;;;;7.45;3.65;;;;;;;5.24;64.12;100002.97;5036515;28;20458;-40
2022/04/21 04:15:04;;;;;;;12.02;3.00;;;;;;;5.22;64.55;100005.50;5033208;28;20480;-45
2022/04/21 04:17:31;;;;;;;5.25;2.58;;;;;;;5.22;64.08;100007.19;5059658;28;20040;-47
2022/04/21 04:19:59;;;;;;;6.65;3.05;;;;;;;5.21;64.30;100005.47;5057408;28;20110;-40
2022/04/21 04:22:26;;;;;;;6.80;3.05;;;;;;;5.19;64.54;100002.00;5040974;28;20485;-45
2022/04/21 04:24:55;;;;;;;11.27;3.10;;;;;;;5.15;64.48;100001.09;5051302;28;20041;-46
2022/04/21 04:27:23;;;;;;;13.88;3.17;;;;;;;5.12;64.52;100001.91;5053442;28;20049;-43
2022/04/21 04:29:50;;;;;;;9.52;3.05;;;;;;;5.11;64.77;99994.16;5047727;28;20114;-43
2022/04/21 04:32:17;;;;;;;10.32;3.28;;;;;;;5.09;64.36;100006.97;5049338;28;20131;-44
2022/04/21 04:34:43;;;;;;;8.23;3.10;;;;;;;5.07;64.52;99998.34;5061382;28;20094;-44
2022/04/21 04:37:10;;;;;;;7.13;2.75;;;;;;;5.06;64.79;99996.63;5061562;28;20049;-43
2022/04/21 04:39:37;;;;;;;7.43;2.53;;;;;;;5.04;64.93;99994.88;5046625;28;20042;-42
2022/04/21 04:46:34;;;;;;;12.00;3.45;;;;;;;5.00;64.78;99993.97;5036505;28;20052;-41
2022/04/21 04:47:39;;;;;;;9.15;3.78;;;;;;;4.97;64.72;99992.19;5049860;28;20052;-41
2022/04/21 04:50:07;;;;;;;6.57;2.88;;;;;;;4.95;64.69;99993.88;5040029;28;20114;-41
2022/04/21 04:52:34;;;;;;;9.88;3.00;;;;;;;4.95;64.07;99998.13;5031278;28;20652;-43
2022/04/21 04:55:01;;;;;;;8.13;2.90;;;;;;;4.92;65.43;100000.63;5048500;28;20090;-43
2022/04/21 04:57:27;;;;;;;7.03;2.67;;;;;;;4.91;65.13;99999.78;5047369;28;20481;-47
2022/04/21 05:00:00;;;;;;;10.65;3.08;;;;;;;4.91;65.71;99999.78;5050738;28;20049;-40
2022/04/21 05:02:26;;;;;;;8.68;3.53;;;;;;;4.92;65.67;99998.94;5047076;28;20045;-44
2022/04/21 05:04:53;;;;;;;7.45;2.97;;;;;;;4.93;65.33;99994.69;5062029;28;20051;-45
2022/04/21 05:07:20;;;;;;;9.88;3.28;;;;;;;4.93;65.25;99994.69;5054333;28;20049;-43
2022/04/21 05:09:47;;;;;;;10.25;3.42;;;;;;;4.93;65.33;100000.66;5056373;28;20822;-44
2022/04/21 05:12:14;;;;;;;7.30;3.15;;;;;;;4.94;65.38;100004.09;5050800;28;20053;-41
2022/04/21 05:14:41;;;;;;;11.55;4.13;;;;;;;4.95;65.55;99998.13;5055293;28;20045;-45
2022/04/21 05:17:07;;;;;;;8.05;3.92;;;;;;;4.96;65.37;99997.31;5065815;28;20074;-41
2022/04/21 05:19:34;;;;;;;11.05;3.35;;;;;;;4.96;65.36;100002.44;5062042;28;20045;-44
2022/04/21 05:22:04;;;;;;;10.35;3.28;;;;;;;4.96;65.35;100002.44;5055119;28;20069;-45
2022/04/21 05:24:31;;;;;;;6.97;2.88;;;;;;;4.97;65.34;99991.34;5035701;28;20076;-44
2022/04/21 05:26:59;;;;;;;8.88;3.58;;;;;;;4.98;65.63;99998.19;5049446;28;20386;-42
2022/04/21 05:32:17;;;;;;;12.50;3.83;;;;;;;5.02;65.89;100002.56;5042261;28;20044;-42
2022/04/21 05:34:43;;;;;;;9.15;3.47;;;;;;;5.06;65.71;100001.78;5055851;28;20102;-46
2022/04/21 05:37:11;;;;;;;8.00;3.60;;;;;;;5.10;65.93;100003.56;5050569;28;20746;-48
2022/04/21 05:39:43;;;;;;;8.55;3.22;;;;;;;5.12;66.45;100009.59;5051762;28;20055;-42
2022/04/21 05:42:17;;;;;;;10.60;3.90;;;;;;;5.17;65.56;100003.69;5050396;28;20470;-43
2022/04/21 05:44:44;;;;;;;7.93;3.25;;;;;;;5.21;65.86;100000.34;5060803;28;20048;-48
2022/04/21 05:47:12;;;;;;;9.73;2.67;;;;;;;5.25;65.77;100004.69;5054867;28;20053;-44
2022/04/21 05:49:38;;;;;;;7.15;3.38;;;;;;;5.28;65.74;100004.75;5052480;28;20103;-46
2022/04/21 05:52:08;;;;;;;6.93;3.28;;;;;;;5.32;65.58;100003.97;5058326;28;20149;-45
2022/04/21 05:54:34;;;;;;;7.22;2.90;;;;;;;5.36;65.83;99998.03;5053806;28;20480;-42
2022/04/21 05:57:02;;;;;;;12.73;3.15;;;;;;;5.40;65.89;100007.53;5049184;28;20049;-50
2022/04/21 05:59:29;;;;;;;7.95;2.90;;;;;;;5.45;65.51;100001.59;5035820;28;20045;-45
2022/04/21 06:01:56;;;;;;;9.60;3.75;;;;;;;5.49;66.38;100000.81;5052489;28;20069;-45
2022/04/21 06:04:23;;;;;;;9.25;3.70;;;;;;;5.53;65.87;100005.16;5052945;28;20148;-44
2022/04/21 06:06:50;;;;;;;9.25;4.65;;;;;;;5.59;65.32;99997.59;5051498;28;20674;-48
2022/04/21 06:09:16;;;;;;;10.18;3.55;;;;;;;5.64;65.68;99998.50;5045431;28;20053;-47
2022/04/21 06:11:43;;;;;;;8.35;4.20;;;;;;;5.70;65.90;100000.31;5056473;28;20447;-41
2022/04/21 06:14:27;;;;;;;14.38;3.97;;;;;;;5.77;66.15;100002.16;5048820;28;20059;-42
2022/04/21 06:16:54;;;;;;;9.18;3.95;;;;;;;5.81;66.65;100003.06;5048576;28;20044;-46
2022/04/21 06:19:20;;;;;;;9.35;3.80;;;;;;;5.91;67.10;100002.38;5043655;28;20098;-44
2022/04/21 06:21:47;;;;;;;8.52;3.47;;;;;;;5.95;66.43;100007.56;5050301;28;20048;-50
2022/04/21 06:24:14;;;;;;;9.77;3.42;;;;;;;6.03;66.05;100008.53;5051014;28;20075;-44
2022/04/21 06:26:42;;;;;;;7.80;3.53;;;;;;;6.09;65.97;100003.53;5053771;28;20064;-51
2022/04/21 06:29:26;;;;;;;9.85;3.92;;;;;;;6.20;66.98;100010.53;5048532;28;20492;-40
2022/04/21 06:31:53;;;;;;;9.40;3.35;;;;;;;6.29;67.00;100010.69;5052913;28;20053;-43
2022/04/21 06:34:20;;;;;;;10.25;3.50;;;;;;;6.38;67.08;100008.22;5056502;28;20084;-45
2022/04/21 06:36:46;;;;;;;9.18;3.78;;;;;;;6.49;66.83;100004.94;5063975;28;20106;-42
2022/04/21 06:39:13;;;;;;;12.57;3.63;;;;;;;6.60;66.23;100010.22;5055807;28;20049;-42
2022/04/21 06:41:39;;;;;;;10.65;4.25;;;;;;;6.75;66.77;99999.28;5052986;28;20048;-51
2022/04/21 06:49:39;;;;;;;13.57;4.20;;;;;;;8.58;66.35;100005.09;5037584;28;20114;-44
2022/04/21 06:52:06;;;;;;;13.70;3.95;;;;;;;9.13;65.15;100007.91;5049573;28;20057;-45
2022/04/21 06:54:33;;;;;;;11.70;3.50;;;;;;;9.65;64.56;100006.25;5047503;28;20191;-45
2022/04/21 06:56:59;;;;;;;10.20;3.72;;;;;;;10.06;63.60;100011.41;5049529;28;20049;-42
2022/04/21 06:59:26;;;;;;;6.43;2.95;;;;;;;10.54;63.66;100008.75;5056497;28;20098;-43
2022/04/21 07:01:52;;;;;;;7.95;3.67;;;;;;;10.97;62.60;100012.88;5052102;28;20061;-49
2022/04/21 07:04:20;;;;;;;10.63;3.50;;;;;;;11.30;62.01;100010.97;5047618;28;20563;-47
2022/04/21 07:06:47;;;;;;;9.48;3.25;;;;;;;11.72;60.93;100012.38;5058656;28;20056;-43
2022/04/21 07:09:13;;;;;;;8.35;4.95;;;;;;;12.12;61.15;100016.41;5053516;28;20407;-45
2022/04/21 07:11:40;;;;;;;8.73;3.20;;;;;;;12.52;59.12;100009.94;5055303;28;20049;-48
2022/04/21 07:14:07;;;;;;;13.13;3.55;;;;;;;12.91;59.52;100019.00;5057407;28;20412;-43
2022/04/21 07:16:34;;;;;;;8.32;4.00;;;;;;;13.25;57.97;100013.34;5046920;28;20110;-50
2022/04/21 07:19:01;;;;;;;14.68;3.38;;;;;;;13.58;57.96;100018.94;5044544;28;20061;-50
2022/04/21 07:21:28;;;;;;;9.57;3.28;;;;;;;13.82;57.46;100011.63;5051147;28;20053;-45
2022/04/21 07:24:12;;;;;;;10.27;3.63;;;;;;;14.09;55.55;100003.38;5044388;28;20048;-45
2022/04/21 07:26:39;;;;;;;5.45;2.92;;;;;;;14.35;55.47;100010.69;5051960;28;20049;-48
2022/04/21 07:29:06;;;;;;;10.55;3.05;;;;;;;14.59;55.19;100008.50;5048562;28;20111;-46
2022/04/21 07:31:32;;;;;;;12.52;3.90;;;;;;;14.88;54.09;100014.91;5050503;28;20041;-43
2022/04/21 07:33:59;;;;;;;7.68;3.55;;;;;;;15.18;53.44;100010.78;5049282;28;20064;-51
2022/04/21 07:36:26;;;;;;;7.18;3.83;;;;;;;15.50;53.02;100017.03;5050895;28;20135;-43
2022/04/21 07:38:54;;;;;;;10.65;3.35;;;;;;;15.85;52.52;100023.13;5053724;28;20044;-54
2022/04/21 07:41:21;;;;;;;8.32;3.78;;;;;;;16.26;52.71;100022.13;5048557;28;20451;-47
2022/04/21 07:43:47;;;;;;;12.48;5.93;;;;;;;16.43;49.97;100014.69;5055396;28;20573;-43
2022/04/21 07:46:14;;;;;;;16.02;3.47;;;;;;;16.43;49.98;100019.06;5051343;28;20086;-48
2022/04/21 07:51:28;;;;;;;12.30;3.97;;;;;;;16.86;49.74;100016.97;5040865;28;20052;-49
2022/04/21 07:53:54;;;;;;;11.80;3.67;;;;;;;17.20;48.84;100021.19;5050417;28;20054;-45
2022/04/21 07:56:21;;;;;;;11.73;4.40;;;;;;;17.39;48.41;100025.88;5061229;28;20463;-53
2022/04/21 07:58:47;;;;;;;11.57;4.95;;;;;;;17.49;47.65;100015.97;5059915;28;20424;-47
2022/04/21 08:01:14;;;;;;;10.40;3.85;;;;;;;17.54;47.54;100023.69;5055583;28;20123;-46
2022/04/21 08:03:43;;;;;;;8.35;3.92;;;;;;;17.85;47.37;100022.66;5053010;28;20056;-46
2022/04/21 08:06:11;;;;;;;8.77;4.00;;;;;;;18.09;46.78;100026.25;5050891;28;20079;-44
2022/04/21 08:08:40;;;;;;;12.48;4.15;;;;;;;18.41;46.36;100028.63;5058415;28;20049;-45
2022/04/21 08:11:07;;;;;;;11.05;4.82;;;;;;;18.59;45.64;100021.88;5052639;28;20068;-48
2022/04/21 08:13:34;;;;;;;9.75;4.50;;;;;;;18.88;45.10;100016.47;5040371;28;20102;-43
2022/04/21 08:16:01;;;;;;;9.88;3.97;;;;;;;18.91;43.72;100032.06;5037153;28;20107;-45
2022/04/21 08:18:27;;;;;;;10.63;4.72;;;;;;;19.02;44.64;100021.19;5053885;28;20041;-47
2022/04/21 08:20:58;;;;;;;11.45;4.50;;;;;;;19.12;43.65;100021.72;5047048;28;20138;-47
2022/04/21 08:23:41;;;;;;;8.60;4.03;;;;;;;19.32;43.37;100023.53;5050404;28;20075;-45
2022/04/21 08:34:47;;;;;;;9.15;4.57;;;;;;;20.34;41.95;100012.38;5047342;28;20061;-52
2022/04/21 08:37:14;;;;;;;8.10;3.72;;;;;;;20.53;42.26;100020.28;5046386;28;20549;-45
2022/04/21 08:39:40;;;;;;;9.65;3.80;;;;;;;20.89;41.24;100017.84;5052579;28;20044;-44
2022/04/21 08:42:10;;;;;;;7.18;3.83;;;;;;;21.12;41.09;100018.53;5049036;28;20041;-47
2022/04/21 08:44:41;;;;;;;7.78;3.88;;;;;;;21.34;39.88;100012.25;5050417;28;20075;-47
2022/04/21 08:47:10;;;;;;;11.45;4.80;;;;;;;21.43;39.27;100014.44;5046002;28;20049;-45
2022/04/21 08:49:39;;;;;;;10.70;5.28;;;;;;;21.57;39.65;100011.97;5049422;28;20435;-45
2022/04/21 08:52:07;;;;;;;8.18;3.90;;;;;;;21.76;39.45;100011.09;5043776;28;20114;-46
2022/04/21 08:54:35;;;;;;;7.65;4.18;;;;;;;21.94;39.06;100016.34;5046138;28;20044;-47
2022/04/21 08:57:04;;;;;;;8.70;4.10;;;;;;;22.03;38.23;100012.41;5043419;28;20049;-46
2022/04/21 08:59:31;;;;;;;9.93;5.03;;;;;;;22.13;38.24;100015.41;5045164;28;20106;-51
2022/04/21 09:02:00;;;;;;;9.45;3.83;;;;;;;22.25;37.11;100016.56;5040949;28;20060;-44
2022/04/21 09:04:30;;;;;;;9.30;3.97;;;;;;;22.16;37.42;100020.53;5053866;28;20053;-45
2022/04/21 09:07:19;;;;;;;9.10;4.32;;;;;;;22.21;36.75;100019.34;5048613;28;20115;-54
2022/04/21 09:12:43;;;;;;;9.57;5.22;;;;;;;21.83;37.84;100015.13;5061288;27;20131;-48
2022/04/21 09:15:14;;;;;;;10.15;4.90;;;;;;;21.88;36.62;100016.69;5064404;28;20102;-46
2022/04/21 09:17:45;;;;;;;7.53;3.78;;;;;;;21.86;37.11;100005.34;5063277;28;20631;-45
2022/04/21 09:20:15;;;;;;;10.75;4.88;;;;;;;21.90;36.38;100014.81;5061425;28;20049;-49
2022/04/21 09:23:04;;;;;;;8.60;4.60;;;;;;;21.96;38.26;100009.22;5036228;28;20526;-46
2022/04/21 09:25:42;;;;;;;8.60;5.88;;;;;;;22.09;37.40;100005.00;5033564;28;20079;-48
2022/04/21 09:28:22;;;;;;;10.68;5.28;;;;;;;22.20;36.85;100017.66;5044386;28;20053;-46
2022/04/21 09:30:52;;;;;;;9.05;5.35;;;;;;;22.16;36.77;100015.25;5029136;28;20060;-47
2022/04/21 09:33:34;;;;;;;9.32;5.38;;;;;;;22.17;36.27;100001.13;5029110;28;20053;-45
2022/04/21 09:36:05;;;;;;;10.32;5.68;;;;;;;22.08;37.08;100010.38;5027498;28;20049;-46
2022/04/21 09:38:34;;;;;;;7.43;5.13;;;;;;;22.11;37.13;100006.72;5044317;28;20512;-45
2022/04/21 09:41:10;;;;;;;12.27;5.80;;;;;;;22.22;36.45;100004.38;5028921;28;20045;-52
2022/04/21 09:43:38;;;;;;;7.32;6.07;;;;;;;22.32;36.73;100016.16;5029311;28;20051;-46
2022/04/21 09:46:21;;;;;;;7.65;4.97;;;;;;;22.43;35.82;100006.81;5043040;28;20099;-46
2022/04/21 09:48:53;;;;;;;9.15;4.82;;;;;;;22.40;36.52;100005.22;5041882;28;20049;-46
2022/04/21 09:51:37;;;;;;;10.80;6.28;;;;;;;22.34;37.09;100003.75;5041800;28;20076;-48
2022/04/21 09:54:05;;;;;;;9.50;5.40;;;;;;;22.47;36.63;99997.81;5043535;28;20041;-45
2022/04/21 09:56:35;;;;;;;12.40;7.00;;;;;;;22.38;36.64;100001.78;5045563;28;20564;-43
2022/04/21 09:59:04;;;;;;;8.38;5.22;;;;;;;22.35;36.51;100004.56;5025649;28;20533;-50
2022/04/21 10:01:33;;;;;;;12.18;6.18;;;;;;;22.34;36.83;99992.31;5026176;28;20045;-50
2022/04/21 10:04:04;;;;;;;8.18;5.45;;;;;;;22.47;36.50;99987.25;5026086;28;20563;-48
2022/04/21 10:06:31;;;;;;;8.52;5.22;;;;;;;22.52;35.74;99989.66;5027440;28;20056;-47
2022/04/21 10:08:58;;;;;;;9.50;5.20;;;;;;;22.51;36.13;99988.78;5043431;28;20037;-53
2022/04/21 10:11:27;;;;;;;9.65;5.10;;;;;;;22.55;35.59;99989.47;5043079;28;20045;-49
2022/04/21 10:13:56;;;;;;;9.60;5.53;;;;;;;22.52;35.10;99987.84;5042864;28;20131;-50
2022/04/21 10:16:28;;;;;;;11.98;6.10;;;;;;;22.55;36.48;99985.03;5044141;28;20672;-49
2022/04/21 10:18:57;;;;;;;7.60;5.28;;;;;;;22.63;36.54;99986.44;5041728;28;20049;-50
2022/04/21 10:21:37;;;;;;;7.30;5.80;;;;;;;22.60;34.95;99983.03;5043480;28;20095;-49
2022/04/21 10:24:06;;;;;;;8.20;5.15;;;;;;;22.58;36.57;99981.41;5030487;28;20828;-51
2022/04/21 10:26:42;;;;;;;16.42;5.43;;;;;;;22.64;36.20;99981.09;5031052;28;20049;-51
2022/04/21 10:29:21;;;;;;;9.32;5.15;;;;;;;22.54;36.41;99978.06;5030894;28;20049;-52
2022/04/21 10:37:07;;;;;;;7.97;4.30;;;;;;;22.76;35.78;99976.09;5087901;27;20133;-55
2022/04/21 10:39:34;;;;;;;10.10;3.95;;;;;;;22.68;36.38;99976.50;5093980;28;20089;-52
2022/04/21 10:42:18;;;;;;;10.82;5.05;;;;;;;22.47;35.73;99977.53;5084300;28;21589;-50
2022/04/21 10:50:46;;;;;;;9.32;4.35;;;;;;;22.41;34.19;99967.31;5089393;27;20652;-45
2022/04/21 11:09:00;;;;;;;7.93;4.20;;;;;;;22.65;35.92;99953.75;5084753;27;20123;-48
2022/04/21 11:11:44;;;;;;;8.68;4.03;;;;;;;22.57;35.09;99951.56;5064843;28;20049;-45
2022/04/21 11:14:11;;;;;;;8.07;4.50;;;;;;;22.49;35.25;99943.16;5047933;28;21525;-46
2022/04/21 11:30:11;;;;;;;9.75;3.97;;;;;;;21.66;34.51;99933.38;5102443;27;20133;-48
2022/04/21 11:32:38;;;;;;;9.70;4.65;;;;;;;21.63;34.90;99933.53;5090671;28;20139;-47
2022/04/21 11:35:12;;;;;;;7.63;4.15;;;;;;;21.53;34.70;99939.28;5078285;28;20040;-45
2022/04/21 11:37:51;;;;;;;8.13;4.22;;;;;;;21.64;35.23;99940.50;5102009;28;20052;-51
2022/04/21 11:45:35;;;;;;;7.32;5.93;;;;;;;21.63;35.26;99941.44;5041822;27;20133;-48
2022/04/21 11:48:02;;;;;;;8.80;6.15;;;;;;;21.68;34.87;99942.03;5034864;28;20041;-45
2022/04/21 11:50:30;;;;;;;9.55;5.60;;;;;;;21.57;34.32;99935.56;5032988;28;20133;-50
2022/04/21 11:53:11;;;;;;;7.65;6.22;;;;;;;21.39;33.71;99931.22;5027162;28;20053;-46
2022/04/21 11:55:38;;;;;;;12.38;6.82;;;;;;;21.41;34.66;99929.38;5044699;28;20045;-49
2022/04/21 11:58:11;;;;;;;9.43;5.68;;;;;;;21.34;34.80;99925.34;5045295;28;20058;-46
2022/04/21 12:09:12;;;;;;;10.32;6.35;;;;;;;20.92;34.97;99928.22;5045118;28;20045;-45
2022/04/21 12:11:40;;;;;;;8.43;5.50;;;;;;;20.89;35.11;99923.09;5042080;28;20099;-43
2022/04/21 12:14:07;;;;;;;7.72;6.65;;;;;;;20.83;34.81;99924.19;5040430;28;20080;-51
2022/04/21 12:24:34;;;;;;;9.05;5.45;;;;;;;20.87;35.47;99919.66;5066837;27;20154;-45
2022/04/21 12:27:03;;;;;;;10.85;6.20;;;;;;;20.88;35.46;99916.09;5059022;28;20098;-45
2022/04/21 12:29:31;;;;;;;9.93;6.13;;;;;;;20.87;35.55;99924.91;5040561;28;20067;-47
2022/04/21 12:32:02;;;;;;;11.10;6.65;;;;;;;20.75;34.85;99928.97;5063395;28;20073;-52
2022/04/21 12:34:31;;;;;;;9.98;6.75;;;;;;;20.66;35.65;99923.22;5043042;28;20087;-51
2022/04/21 12:37:00;;;;;;;8.35;4.63;;;;;;;20.79;36.13;99907.72;5063276;28;20474;-47
2022/04/21 12:39:29;;;;;;;7.15;5.90;;;;;;;20.83;35.49;99912.84;5064070;28;20111;-48
2022/04/21 12:42:15;;;;;;;8.20;5.88;;;;;;;20.76;36.25;99917.50;5045463;28;20057;-45
2022/04/21 12:44:44;;;;;;;11.57;7.00;;;;;;;20.79;36.30;99912.97;5062445;28;20044;-49
2022/04/21 12:47:15;;;;;;;10.10;6.18;;;;;;;20.86;36.33;99913.53;5062993;28;20121;-47
2022/04/21 12:50:12;;;;;;;11.35;6.40;;;;;;;20.86;35.22;99912.66;5060237;28;20053;-48
2022/04/21 12:52:42;;;;;;;9.18;6.50;;;;;;;20.93;36.04;99914.97;5047885;28;20037;-46
2022/04/21 12:55:11;;;;;;;10.40;6.30;;;;;;;20.88;36.16;99908.19;5063221;28;20051;-47
2022/04/21 12:57:39;;;;;;;8.02;5.63;;;;;;;20.89;36.04;99913.41;5043336;28;20898;-46
2022/04/21 13:00:09;;;;;;;10.35;7.05;;;;;;;20.87;36.58;99903.88;5042363;28;20393;-46
2022/04/21 13:02:36;;;;;;;8.75;7.03;;;;;;;20.67;35.37;99903.03;5062281;28;20400;-47
2022/04/21 13:05:03;;;;;;;12.98;6.95;;;;;;;20.58;35.94;99906.09;5058317;28;20049;-43
2022/04/21 13:07:30;;;;;;;10.70;4.75;;;;;;;20.62;36.39;99905.00;5058147;28;20495;-45
2022/04/21 13:09:57;;;;;;;9.95;7.05;;;;;;;20.57;36.55;99902.63;5060975;28;20049;-43
2022/04/21 13:12:24;;;;;;;10.25;7.13;;;;;;;20.58;35.72;99903.47;5059065;28;20052;-51
2022/04/21 13:14:50;;;;;;;14.70;6.63;;;;;;;20.64;35.89;99897.91;5062657;28;20040;-48
2022/04/21 13:17:17;;;;;;;10.25;6.30;;;;;;;20.64;35.29;99897.91;5056170;28;20060;-46
2022/04/21 13:19:43;;;;;;;8.88;6.22;;;;;;;20.63;35.65;99890.94;5061498;28;20099;-45
2022/04/21 13:22:10;;;;;;;11.27;5.40;;;;;;;20.46;35.11;99889.94;5060399;28;20049;-44
2022/04/21 13:24:37;;;;;;;10.68;6.22;;;;;;;20.42;35.11;99877.88;5059993;28;20481;-49
2022/04/21 13:27:04;;;;;;;10.20;6.13;;;;;;;20.33;35.65;99883.56;5058993;28;20083;-45